Naples, South Dakota
Current Conditions -  °F | °C
As of 2:17 PM on Thursday 30 Oct 2014 (Local Time) from KATY Reporting Station
Overcast Overcast  
Wind Chill: 29°   Ceiling: 400
Heat Index: 39°   Visibility: 8mi
Dew Point: 37°   Wind: 21mph
Humidity: 93%   Direction: 360°N
Pressure: 30.22"   Gusts: 26mph
Location:  44.6746°N, 97.5528°W
Report Text: KATY 301917Z AUTO 36018G23KT 8SM BKN004 OVC009 04/03 A3022 RMK AO2 CIG 004V008 T00390028
Loading
Personal Weather Stations






























Interactive Weather Map
Tropical Storm Tracking
New forecast layout! Learn more

10-Day Weather Forecast

Advertisements
Track Severe Weather on mobile